Terminal Aerodrome Forecast
Issued by NWS King Salmon, AK

Home | Current Version | Previous Version | Text Only | Print | Product List | Glossary On
Versions: 1 2 3 4 5 6 7 8 9 10 11 12 13 14 15 16 17 18 19 20 21 22 23 24
000
FTAK31 PANC 312330
TAFAKN
TAF
PAKN 312330Z 0100/0124 06015G20KT P6SM FEW040 SCT070 BKN200
     FM010300 06016G22KT P6SM VCSH SCT045 BKN070
     FM010700 06014G20KT P6SM SCT070 BKN100
     FM011000 06008KT P6SM SCT080 BKN120=

USA.gov is the U.S. government's official web portal to all federal, state and local government web resources and services.